createdAt,value
2022-07-30T00:00:53.913Z,69.80
2022-07-30T00:01:56.271Z,70.00
2022-07-30T00:02:59.614Z,70.10
2022-07-30T00:04:02.091Z,70.20
2022-07-30T00:05:06.404Z,70.20
2022-07-30T00:06:11.826Z,70.20
2022-07-30T00:07:15.923Z,70.20
2022-07-30T00:08:18.293Z,70.30
2022-07-30T00:09:21.668Z,70.40
2022-07-30T00:10:25.817Z,70.40
2022-07-30T00:11:29.112Z,70.30
2022-07-30T00:12:31.891Z,70.30
2022-07-30T00:13:35.362Z,70.20
2022-07-30T00:14:39.023Z,70.20
2022-07-30T00:15:42.611Z,70.10
2022-07-30T00:16:45.895Z,70.10
2022-07-30T00:17:49.492Z,70.10
2022-07-30T00:18:52.001Z,70.10
2022-07-30T00:19:56.183Z,70.00
2022-07-30T00:20:58.780Z,70.00
2022-07-30T00:22:02.518Z,70.00
2022-07-30T00:23:05.234Z,70.00
2022-07-30T00:24:09.513Z,70.00
2022-07-30T00:25:12.275Z,70.10
2022-07-30T00:26:16.949Z,70.10
2022-07-30T00:27:19.494Z,70.20
2022-07-30T00:28:22.903Z,70.20
2022-07-30T00:29:26.554Z,70.20
2022-07-30T00:30:31.956Z,70.20
2022-07-30T00:31:34.459Z,70.20
2022-07-30T00:32:37.988Z,70.20
2022-07-30T00:33:40.337Z,70.30
2022-07-30T00:34:43.767Z,70.40
2022-07-30T00:35:46.411Z,70.40
2022-07-30T00:36:50.621Z,70.40
2022-07-30T00:37:53.963Z,70.40
2022-07-30T00:38:57.918Z,70.40
2022-07-30T00:40:00.328Z,70.40
2022-07-30T00:41:03.730Z,70.50
2022-07-30T00:42:07.628Z,70.60
2022-07-30T00:43:16.400Z,70.70
2022-07-30T00:44:20.398Z,70.90
2022-07-30T00:45:24.129Z,70.90
2022-07-30T00:46:31.352Z,71.00
2022-07-30T00:47:37.891Z,71.00
2022-07-30T00:48:40.576Z,71.00
2022-07-30T00:49:44.450Z,71.00
2022-07-30T00:50:46.987Z,71.10
2022-07-30T00:51:52.425Z,71.20
2022-07-30T00:52:54.826Z,71.30
2022-07-30T00:54:01.119Z,71.50
2022-07-30T00:55:04.199Z,71.60
2022-07-30T00:56:07.957Z,71.60
2022-07-30T00:57:11.825Z,71.60
2022-07-30T00:58:15.237Z,71.70
2022-07-30T00:59:17.836Z,71.60
2022-07-30T01:00:21.609Z,71.50
2022-07-30T01:01:24.377Z,71.50
2022-07-30T01:02:28.029Z,72.10
2022-07-30T01:03:30.503Z,71.60
2022-07-30T01:04:34.113Z,71.60
2022-07-30T01:05:36.694Z,71.60
2022-07-30T01:06:40.432Z,71.60
2022-07-30T01:07:43.439Z,71.60
2022-07-30T01:08:46.877Z,71.60
2022-07-30T01:09:49.233Z,71.60
2022-07-30T01:10:52.729Z,71.70
2022-07-30T01:11:56.616Z,71.60
2022-07-30T01:13:02.084Z,71.50
2022-07-30T01:14:06.086Z,71.60
2022-07-30T01:15:11.739Z,71.50
2022-07-30T01:16:15.761Z,71.60
2022-07-30T01:17:19.425Z,71.60
2022-07-30T01:18:24.216Z,71.60
2022-07-30T01:19:48.873Z,71.70
2022-07-30T01:21:01.872Z,71.70
2022-07-30T01:22:12.512Z,71.90
2022-07-30T01:23:26.329Z,71.90
2022-07-30T01:24:36.375Z,72.00
2022-07-30T01:25:54.439Z,71.90
2022-07-30T01:26:59.072Z,72.10
2022-07-30T01:28:07.341Z,71.90
2022-07-30T01:29:10.837Z,72.00
2022-07-30T01:30:18.618Z,72.00
2022-07-30T01:31:23.218Z,72.00
2022-07-30T01:32:30.830Z,72.00
2022-07-30T01:33:37.550Z,72.00
2022-07-30T01:34:42.191Z,71.90
2022-07-30T01:35:48.723Z,71.80
2022-07-30T01:36:52.508Z,71.70
2022-07-30T01:37:57.691Z,71.60
2022-07-30T01:39:02.018Z,71.60
2022-07-30T01:40:07.838Z,71.70
2022-07-30T01:41:13.363Z,71.70
2022-07-30T01:42:18.033Z,71.80
2022-07-30T01:43:23.754Z,71.80
2022-07-30T01:44:29.186Z,71.90
2022-07-30T01:45:35.803Z,72.00
2022-07-30T01:46:47.391Z,71.90
2022-07-30T01:47:53.202Z,72.00
2022-07-30T01:48:59.024Z,72.20
2022-07-30T01:50:11.018Z,72.30
2022-07-30T01:51:17.284Z,72.50
2022-07-30T01:52:27.079Z,72.60
2022-07-30T01:53:32.918Z,72.60
2022-07-30T01:54:38.469Z,72.60
2022-07-30T01:55:42.358Z,72.60
2022-07-30T01:56:48.883Z,72.50
2022-07-30T01:57:52.092Z,72.40
2022-07-30T01:58:58.591Z,72.30
2022-07-30T02:00:07.429Z,72.30
2022-07-30T02:01:26.104Z,72.20
2022-07-30T02:02:35.303Z,72.20
2022-07-30T02:03:38.674Z,72.10
2022-07-30T02:04:42.129Z,72.10
2022-07-30T02:05:53.468Z,72.10
2022-07-30T02:07:04.510Z,72.20
2022-07-30T02:08:16.833Z,72.20
2022-07-30T02:09:31.733Z,72.20
2022-07-30T02:10:42.470Z,72.40
2022-07-30T02:12:11.198Z,72.50
2022-07-30T02:13:23.046Z,72.70
2022-07-30T02:14:30.890Z,72.80
2022-07-30T02:15:42.589Z,72.80
2022-07-30T02:16:50.414Z,72.90
2022-07-30T02:18:01.469Z,72.90
2022-07-30T02:19:09.743Z,72.80
2022-07-30T02:20:18.594Z,72.60
2022-07-30T02:21:22.044Z,72.60
2022-07-30T02:22:29.462Z,72.50
2022-07-30T02:23:39.257Z,72.40
2022-07-30T02:24:43.993Z,72.40
2022-07-30T02:25:50.675Z,72.50
2022-07-30T02:27:04.334Z,72.80
2022-07-30T02:28:13.104Z,72.90
2022-07-30T02:29:18.650Z,73.00
2022-07-30T02:30:27.770Z,73.00
2022-07-30T02:31:32.822Z,73.20
2022-07-30T02:32:43.501Z,73.30
2022-07-30T02:33:51.033Z,73.40
2022-07-30T02:35:00.216Z,73.50
2022-07-30T02:36:05.853Z,73.60
2022-07-30T02:37:16.588Z,73.60
2022-07-30T02:38:24.307Z,73.60
2022-07-30T02:39:30.210Z,73.60
2022-07-30T02:40:34.575Z,73.70
2022-07-30T02:41:40.373Z,73.80
2022-07-30T02:42:48.837Z,73.90
2022-07-30T02:44:01.397Z,74.10
2022-07-30T02:45:07.369Z,74.10
2022-07-30T02:46:13.368Z,73.90
2022-07-30T02:47:36.982Z,74.00
2022-07-30T02:48:41.368Z,74.00
2022-07-30T02:49:52.094Z,73.90
2022-07-30T02:51:00.902Z,74.00
2022-07-30T02:52:04.992Z,74.10
2022-07-30T02:53:13.089Z,74.00
2022-07-30T02:54:20.143Z,74.10
2022-07-30T02:55:26.174Z,74.10
2022-07-30T02:56:29.442Z,74.10
2022-07-30T02:57:34.630Z,74.30
2022-07-30T02:58:40.223Z,74.40
2022-07-30T02:59:45.042Z,74.50
2022-07-30T03:00:50.457Z,74.60
2022-07-30T03:01:55.583Z,74.70
2022-07-30T03:02:58.986Z,74.70
2022-07-30T03:04:07.423Z,74.80
2022-07-30T03:05:11.526Z,74.80
2022-07-30T03:06:16.300Z,74.90
2022-07-30T03:07:20.083Z,75.00
2022-07-30T03:08:24.106Z,75.00
2022-07-30T03:09:28.614Z,75.00
2022-07-30T03:10:55.124Z,75.10
2022-07-30T03:12:01.838Z,75.00
2022-07-30T03:13:08.156Z,75.00
2022-07-30T03:14:12.448Z,75.00
2022-07-30T03:15:16.872Z,74.80
2022-07-30T03:16:22.466Z,74.80
2022-07-30T03:17:29.778Z,74.60
2022-07-30T03:18:36.746Z,74.50
2022-07-30T03:19:41.430Z,74.50
2022-07-30T03:20:47.762Z,74.60
2022-07-30T03:21:56.520Z,74.60
2022-07-30T03:23:02.837Z,74.50
2022-07-30T03:24:09.178Z,74.70
2022-07-30T03:25:17.849Z,74.90
2022-07-30T03:26:22.484Z,74.90
2022-07-30T03:27:27.281Z,75.70
2022-07-30T03:28:34.316Z,75.20
2022-07-30T03:29:41.199Z,75.30
2022-07-30T03:30:44.860Z,75.30
2022-07-30T03:31:49.550Z,75.30
2022-07-30T03:32:58.382Z,75.30
2022-07-30T03:34:03.474Z,75.40
2022-07-30T03:35:16.978Z,75.20
2022-07-30T03:36:23.726Z,75.20
2022-07-30T03:37:27.846Z,75.10
2022-07-30T03:38:33.962Z,75.10
2022-07-30T03:39:40.364Z,75.00
2022-07-30T03:40:49.313Z,75.00
2022-07-30T03:41:55.762Z,74.90
2022-07-30T03:43:02.419Z,74.80
2022-07-30T03:44:08.657Z,74.80
2022-07-30T03:45:16.014Z,74.80
2022-07-30T03:46:18.816Z,74.70
2022-07-30T03:47:26.583Z,74.70
2022-07-30T03:48:29.398Z,74.50
2022-07-30T03:49:32.971Z,74.50
2022-07-30T03:50:37.022Z,74.40
2022-07-30T03:51:41.466Z,74.50
2022-07-30T03:52:44.720Z,74.50
2022-07-30T03:53:53.494Z,74.50
2022-07-30T03:55:13.790Z,74.50
2022-07-30T03:56:25.264Z,74.70
2022-07-30T03:57:48.972Z,74.70
2022-07-30T03:58:52.989Z,74.80
2022-07-30T03:59:56.429Z,74.90
2022-07-30T04:01:00.181Z,75.00
2022-07-30T04:02:06.817Z,75.20
2022-07-30T04:03:36.227Z,75.40
2022-07-30T04:04:42.774Z,75.50
2022-07-30T04:05:46.213Z,75.60
2022-07-30T04:06:48.635Z,75.50
2022-07-30T04:07:52.044Z,75.60
2022-07-30T04:08:56.904Z,75.60
2022-07-30T04:10:00.527Z,75.70
2022-07-30T04:11:41.605Z,75.70
2022-07-30T04:12:47.557Z,75.80
2022-07-30T04:13:50.733Z,75.90
2022-07-30T04:15:00.026Z,76.00
2022-07-30T04:16:38.922Z,76.10
2022-07-30T04:17:45.167Z,76.20
2022-07-30T04:18:53.360Z,76.20
2022-07-30T04:20:03.293Z,76.20
2022-07-30T04:21:16.176Z,76.30
2022-07-30T04:22:28.302Z,76.20
2022-07-30T04:23:30.771Z,76.20
2022-07-30T04:24:36.329Z,76.20
2022-07-30T04:25:42.118Z,76.20
2022-07-30T04:26:46.079Z,76.20
2022-07-30T04:28:03.086Z,76.30
2022-07-30T04:29:17.264Z,76.20
2022-07-30T04:30:21.893Z,76.40
2022-07-30T04:31:31.199Z,76.30
2022-07-30T04:32:42.413Z,76.40
2022-07-30T04:34:16.207Z,76.30
2022-07-30T04:35:51.669Z,76.40
2022-07-30T04:36:56.098Z,76.60
2022-07-30T04:37:58.972Z,76.50
2022-07-30T04:39:02.904Z,76.50
2022-07-30T04:40:07.343Z,76.50
2022-07-30T04:41:10.736Z,76.50
2022-07-30T04:42:39.716Z,76.50
2022-07-30T04:43:45.827Z,76.60
2022-07-30T04:44:49.881Z,77.20
2022-07-30T04:46:03.881Z,76.60
2022-07-30T04:47:08.692Z,76.70
2022-07-30T04:48:16.413Z,76.80
2022-07-30T04:49:45.311Z,76.80
2022-07-30T04:50:51.604Z,76.70
2022-07-30T04:51:56.858Z,76.70
2022-07-30T04:52:59.721Z,76.60
2022-07-30T04:54:08.404Z,76.50
2022-07-30T04:55:20.930Z,76.60
2022-07-30T04:56:26.591Z,76.60
2022-07-30T04:57:30.745Z,76.60
2022-07-30T04:58:36.048Z,76.60
2022-07-30T04:59:39.183Z,76.70
2022-07-30T05:00:44.458Z,76.70
2022-07-30T05:01:52.384Z,76.80
2022-07-30T05:02:57.695Z,76.90
2022-07-30T05:04:02.509Z,77.10
2022-07-30T05:05:08.244Z,77.30
2022-07-30T05:06:13.925Z,77.50
2022-07-30T05:07:18.533Z,77.60
2022-07-30T05:08:26.693Z,77.80
2022-07-30T05:09:31.013Z,78.00
2022-07-30T05:10:34.503Z,78.30
2022-07-30T05:11:36.869Z,78.60
2022-07-30T05:12:40.637Z,78.60
2022-07-30T05:13:46.107Z,78.80
2022-07-30T05:14:50.881Z,79.00
2022-07-30T05:15:53.345Z,79.10
2022-07-30T05:17:00.474Z,79.20
2022-07-30T05:18:06.098Z,79.30
2022-07-30T05:19:12.413Z,79.40
2022-07-30T05:20:15.790Z,79.40
2022-07-30T05:21:39.600Z,79.50
2022-07-30T05:22:42.742Z,79.60
2022-07-30T05:23:49.999Z,79.60
2022-07-30T05:25:16.226Z,79.70
2022-07-30T05:26:22.267Z,79.70
2022-07-30T05:27:30.070Z,79.70
2022-07-30T05:28:33.507Z,79.60
2022-07-30T05:29:40.189Z,79.60
2022-07-30T05:30:48.937Z,79.70
2022-07-30T05:31:54.649Z,79.80
2022-07-30T05:33:03.624Z,80.00
2022-07-30T05:34:14.017Z,80.10
2022-07-30T05:35:20.701Z,80.30
2022-07-30T05:36:23.332Z,80.30
2022-07-30T05:37:26.898Z,80.30
2022-07-30T05:38:29.479Z,80.30
2022-07-30T05:40:02.356Z,80.40
2022-07-30T05:41:33.415Z,80.40
2022-07-30T05:42:38.725Z,80.40
2022-07-30T05:43:44.860Z,80.50
2022-07-30T05:44:47.531Z,80.70
2022-07-30T05:45:50.993Z,80.80
2022-07-30T05:46:53.475Z,80.80
2022-07-30T05:47:56.922Z,81.00
2022-07-30T05:48:59.531Z,81.30
2022-07-30T05:50:06.942Z,81.50
2022-07-30T05:51:09.378Z,81.70
2022-07-30T05:52:12.682Z,81.90
2022-07-30T05:53:15.228Z,82.20
2022-07-30T05:54:38.528Z,82.40
2022-07-30T05:56:00.819Z,82.50
2022-07-30T05:57:25.991Z,82.50
2022-07-30T05:58:28.538Z,82.80
2022-07-30T05:59:32.286Z,82.90
2022-07-30T06:00:44.713Z,82.90
2022-07-30T06:01:47.586Z,83.10
2022-07-30T06:02:57.091Z,83.10
2022-07-30T06:04:02.078Z,83.10
2022-07-30T06:05:33.558Z,82.90
2022-07-30T06:06:37.390Z,82.90
2022-07-30T06:07:40.748Z,82.90
2022-07-30T06:08:44.270Z,82.80
2022-07-30T06:09:47.725Z,82.70
2022-07-30T06:10:50.125Z,82.50
2022-07-30T06:11:53.666Z,82.30
2022-07-30T06:13:00.212Z,82.00
2022-07-30T06:14:03.698Z,81.80
2022-07-30T06:15:08.180Z,81.60
2022-07-30T06:16:14.673Z,81.30
2022-07-30T06:17:17.177Z,81.20
2022-07-30T06:18:40.988Z,81.00
2022-07-30T06:19:53.298Z,80.90
2022-07-30T06:21:00.378Z,80.70
2022-07-30T06:22:14.146Z,80.40
2022-07-30T06:23:23.742Z,80.20
2022-07-30T06:24:45.707Z,79.90
2022-07-30T06:25:54.639Z,79.70
2022-07-30T06:26:56.988Z,79.40
2022-07-30T06:28:15.369Z,79.10
2022-07-30T06:29:24.116Z,78.80
2022-07-30T06:30:30.308Z,78.70
2022-07-30T06:31:35.338Z,78.60
2022-07-30T06:32:37.927Z,78.40
2022-07-30T06:33:43.110Z,78.10
2022-07-30T06:34:45.995Z,77.80
2022-07-30T06:35:49.671Z,77.60
2022-07-30T06:36:56.461Z,77.40
2022-07-30T06:38:07.673Z,77.30
2022-07-30T06:39:57.052Z,77.10
2022-07-30T06:41:03.052Z,76.90
2022-07-30T06:42:30.967Z,77.20
2022-07-30T06:43:56.105Z,77.30
2022-07-30T06:45:17.964Z,77.00
2022-07-30T06:46:40.376Z,76.80
2022-07-30T06:47:43.762Z,76.60
2022-07-30T06:48:46.321Z,76.10
2022-07-30T06:49:49.738Z,75.70
2022-07-30T06:50:53.346Z,75.50
2022-07-30T06:51:57.311Z,75.20
2022-07-30T06:53:00.753Z,74.90
2022-07-30T06:54:15.190Z,74.70
2022-07-30T06:55:36.083Z,74.70
2022-07-30T06:56:39.998Z,74.60
2022-07-30T06:57:43.659Z,74.00
2022-07-30T06:59:07.302Z,73.60
2022-07-30T07:00:29.197Z,73.30
2022-07-30T07:01:32.691Z,73.00
2022-07-30T07:02:36.362Z,72.50
2022-07-30T07:03:49.051Z,72.00
2022-07-30T07:04:52.514Z,72.00
2022-07-30T07:05:54.868Z,72.00
2022-07-30T07:07:00.260Z,71.80
2022-07-30T07:08:14.883Z,71.60
2022-07-30T07:09:24.173Z,71.30
2022-07-30T07:10:42.908Z,71.20
2022-07-30T07:12:02.382Z,71.30
2022-07-30T07:13:05.892Z,71.30
2022-07-30T07:14:11.604Z,71.00
2022-07-30T07:15:14.012Z,70.90
2022-07-30T07:16:21.549Z,70.70
2022-07-30T07:17:25.106Z,70.40
2022-07-30T07:18:34.598Z,70.00
2022-07-30T07:20:01.442Z,69.70
2022-07-30T07:21:04.821Z,69.20
2022-07-30T07:22:09.018Z,68.90
2022-07-30T07:23:13.146Z,68.70
2022-07-30T07:24:18.038Z,68.70
2022-07-30T07:25:30.233Z,68.90
2022-07-30T07:26:32.686Z,69.10
2022-07-30T07:27:36.323Z,69.40
2022-07-30T07:28:40.213Z,69.50
2022-07-30T07:30:01.187Z,69.50
2022-07-30T07:31:07.763Z,69.00
2022-07-30T07:32:11.175Z,68.80
2022-07-30T07:33:16.422Z,68.30
2022-07-30T07:34:20.678Z,67.80
2022-07-30T07:35:24.146Z,67.10
2022-07-30T07:36:28.477Z,66.60
2022-07-30T07:37:32.635Z,65.60
2022-07-30T07:38:36.643Z,64.90
2022-07-30T07:39:42.238Z,64.40
2022-07-30T07:40:47.229Z,64.20
2022-07-30T07:41:50.090Z,63.80
2022-07-30T07:42:58.805Z,63.40
2022-07-30T07:44:02.289Z,63.10
2022-07-30T07:45:11.090Z,62.70
2022-07-30T07:46:33.925Z,62.20
2022-07-30T07:47:51.862Z,61.40
2022-07-30T07:49:36.229Z,59.90
2022-07-30T07:50:40.254Z,60.90
2022-07-30T07:51:51.815Z,60.70
2022-07-30T07:52:57.174Z,60.80
2022-07-30T07:54:20.580Z,61.20
2022-07-30T07:55:25.873Z,61.60
2022-07-30T07:56:28.376Z,62.30
2022-07-30T07:57:38.977Z,62.80
2022-07-30T07:58:42.616Z,62.80
2022-07-30T07:59:47.675Z,62.50
2022-07-30T08:01:00.070Z,62.00
2022-07-30T08:02:23.637Z,61.60
2022-07-30T08:03:33.769Z,61.20
2022-07-30T08:04:43.322Z,60.20
2022-07-30T08:06:00.959Z,60.80
2022-07-30T08:07:38.458Z,59.60
2022-07-30T08:09:13.508Z,58.70
2022-07-30T08:10:39.802Z,58.10
2022-07-30T08:11:49.312Z,58.30
2022-07-30T08:13:51.989Z,58.30
2022-07-30T08:14:57.185Z,58.90
2022-07-30T08:16:18.457Z,59.80
2022-07-30T08:17:42.328Z,59.50
2022-07-30T08:18:52.884Z,59.20
2022-07-30T08:20:07.378Z,58.70
2022-07-30T08:21:10.975Z,58.00
2022-07-30T08:22:14.491Z,57.60
2022-07-30T08:23:18.028Z,57.30
2022-07-30T08:24:23.503Z,56.90
2022-07-30T08:25:25.913Z,56.40
2022-07-30T08:26:30.617Z,55.60
2022-07-30T08:27:34.063Z,54.70
2022-07-30T08:28:38.278Z,53.90
2022-07-30T08:29:42.808Z,53.60
2022-07-30T08:30:47.269Z,53.20
2022-07-30T08:31:49.711Z,53.00
2022-07-30T08:32:53.129Z,53.10
2022-07-30T08:33:55.627Z,53.60
2022-07-30T08:34:59.789Z,53.50
2022-07-30T08:36:04.109Z,53.70
2022-07-30T08:37:09.169Z,53.90
2022-07-30T08:38:14.922Z,53.50
2022-07-30T08:39:17.516Z,53.20
2022-07-30T08:40:22.589Z,53.10
2022-07-30T08:41:43.958Z,52.40
2022-07-30T08:42:47.256Z,51.90
2022-07-30T08:43:54.527Z,51.30
2022-07-30T08:44:57.835Z,51.00
2022-07-30T08:46:03.751Z,50.80
2022-07-30T08:47:23.757Z,50.30
2022-07-30T08:50:04.394Z,49.50
2022-07-30T08:51:11.443Z,48.80
2022-07-30T08:52:38.675Z,48.60
2022-07-30T08:53:44.205Z,48.50
2022-07-30T08:54:47.854Z,48.00
2022-07-30T08:55:55.596Z,47.20
2022-07-30T08:57:01.861Z,47.00
2022-07-30T08:58:24.008Z,47.20
2022-07-30T09:00:00.548Z,47.20
2022-07-30T09:00:52.904Z,47.50
2022-07-30T09:01:57.038Z,47.40
2022-07-30T09:03:01.912Z,47.20
2022-07-30T09:05:14.774Z,47.00
2022-07-30T09:06:17.564Z,47.60
2022-07-30T09:07:21.138Z,48.20
2022-07-30T09:08:24.044Z,48.60
2022-07-30T09:09:27.524Z,48.60
2022-07-30T09:10:34.501Z,48.20
2022-07-30T09:11:39.460Z,47.80
2022-07-30T09:12:43.898Z,47.60
2022-07-30T09:13:48.458Z,47.60
2022-07-30T09:15:03.940Z,47.50
2022-07-30T09:16:09.582Z,47.60
2022-07-30T09:17:13.539Z,48.00
2022-07-30T09:18:29.537Z,47.80
2022-07-30T09:19:32.138Z,47.40
2022-07-30T09:20:37.612Z,47.50
2022-07-30T09:21:56.961Z,46.80
2022-07-30T09:23:08.495Z,46.90
2022-07-30T09:24:44.441Z,46.90
2022-07-30T09:26:06.495Z,46.50
2022-07-30T09:27:46.516Z,46.20
2022-07-30T09:29:18.263Z,45.40
2022-07-30T09:30:51.020Z,45.00
2022-07-30T09:32:13.537Z,45.30
2022-07-30T09:33:52.072Z,45.50
2022-07-30T09:35:14.990Z,45.30
2022-07-30T09:36:37.373Z,45.10
2022-07-30T09:38:06.159Z,44.50
2022-07-30T09:39:36.514Z,43.80
2022-07-30T09:41:00.112Z,43.80
2022-07-30T09:42:25.069Z,44.20
2022-07-30T09:43:30.951Z,44.30
2022-07-30T09:44:47.599Z,44.40
2022-07-30T09:45:56.670Z,44.70
2022-07-30T09:47:02.908Z,44.80
2022-07-30T09:48:22.216Z,44.90
2022-07-30T09:49:28.367Z,44.50
2022-07-30T09:50:32.060Z,44.50
2022-07-30T09:51:54.719Z,44.20
2022-07-30T09:53:11.912Z,43.80
2022-07-30T09:54:16.625Z,43.00
2022-07-30T09:55:33.032Z,44.00
2022-07-30T09:56:36.053Z,43.00
2022-07-30T09:57:57.686Z,43.80
2022-07-30T09:59:04.974Z,44.30
2022-07-30T10:00:23.593Z,44.70
2022-07-30T10:02:00.715Z,44.90
2022-07-30T10:03:33.556Z,45.20
2022-07-30T10:05:09.963Z,45.50
2022-07-30T10:06:17.902Z,45.30
2022-07-30T10:07:24.998Z,44.70
2022-07-30T10:08:42.753Z,44.40
2022-07-30T10:09:49.852Z,44.20
2022-07-30T10:10:57.567Z,44.20
2022-07-30T10:12:11.605Z,44.00
2022-07-30T10:13:22.470Z,43.70
2022-07-30T10:14:32.380Z,43.70
2022-07-30T10:15:38.375Z,43.90
2022-07-30T10:16:42.638Z,44.40
2022-07-30T10:17:49.899Z,44.70
2022-07-30T10:19:18.179Z,44.80
2022-07-30T10:20:43.982Z,44.80
2022-07-30T10:22:08.685Z,44.40
2022-07-30T10:23:33.976Z,43.90
2022-07-30T10:24:57.019Z,43.70
2022-07-30T10:26:19.977Z,43.60
2022-07-30T10:27:57.752Z,43.40
2022-07-30T10:29:06.174Z,43.90
2022-07-30T10:30:13.786Z,44.20
2022-07-30T10:31:47.060Z,44.10
2022-07-30T10:32:45.276Z,44.10
2022-07-30T10:33:56.898Z,43.50
2022-07-30T10:35:01.221Z,43.20
2022-07-30T10:36:09.011Z,43.00
2022-07-30T10:37:16.636Z,42.90
2022-07-30T10:38:28.688Z,43.00
2022-07-30T10:39:37.280Z,43.70
2022-07-30T10:40:53.458Z,43.20
2022-07-30T10:42:16.777Z,43.00
2022-07-30T10:44:16.268Z,42.80
2022-07-30T10:45:27.985Z,42.70
2022-07-30T10:46:48.494Z,42.30
2022-07-30T10:48:00.886Z,41.90
2022-07-30T10:49:12.581Z,42.20
2022-07-30T10:50:26.852Z,42.50
2022-07-30T10:51:47.713Z,42.70
2022-07-30T10:52:54.517Z,43.20
2022-07-30T10:54:04.468Z,43.20
2022-07-30T10:55:15.947Z,43.20
2022-07-30T10:56:25.550Z,42.20
2022-07-30T10:57:32.780Z,42.30
2022-07-30T10:59:00.609Z,42.30
2022-07-30T11:00:12.249Z,39.70
2022-07-30T11:01:21.430Z,40.50
2022-07-30T11:02:27.015Z,40.70
2022-07-30T11:03:41.080Z,40.90
2022-07-30T11:04:47.868Z,40.60
2022-07-30T11:05:54.745Z,40.30
2022-07-30T11:07:31.509Z,40.50
2022-07-30T11:08:37.649Z,40.70
2022-07-30T11:09:49.714Z,40.80
2022-07-30T11:12:02.059Z,41.20
2022-07-30T11:13:09.067Z,41.00
2022-07-30T11:14:12.939Z,41.60
2022-07-30T11:15:18.281Z,41.20
2022-07-30T11:16:26.207Z,40.90
2022-07-30T11:18:12.896Z,40.50
2022-07-30T11:19:56.394Z,39.40
2022-07-30T11:20:43.124Z,40.50
2022-07-30T11:22:25.923Z,40.30
2022-07-30T11:23:41.163Z,39.90
2022-07-30T11:24:48.881Z,39.90
2022-07-30T11:25:54.574Z,40.00
2022-07-30T11:26:58.559Z,39.70
2022-07-30T11:28:01.429Z,39.40
2022-07-30T11:29:05.734Z,38.80
2022-07-30T11:30:42.040Z,38.40
2022-07-30T11:32:07.496Z,38.50
2022-07-30T11:33:32.281Z,38.50
2022-07-30T11:34:36.721Z,37.00
2022-07-30T11:35:42.109Z,37.70
2022-07-30T11:37:18.764Z,37.90
2022-07-30T11:38:26.796Z,37.70
2022-07-30T11:40:13.916Z,38.20
2022-07-30T11:41:16.462Z,37.80
2022-07-30T11:42:27.444Z,37.90
2022-07-30T11:43:36.220Z,37.20
2022-07-30T11:44:40.217Z,36.90
2022-07-30T11:45:45.207Z,36.80
2022-07-30T11:46:52.028Z,37.10
2022-07-30T11:48:00.382Z,37.60
2022-07-30T11:49:09.034Z,38.00
2022-07-30T11:50:19.092Z,38.10
2022-07-30T11:51:23.030Z,37.90
2022-07-30T11:52:25.989Z,37.90
2022-07-30T11:53:31.701Z,37.70
2022-07-30T11:54:54.283Z,37.20
2022-07-30T11:56:01.144Z,36.70
2022-07-30T11:57:05.266Z,36.60
2022-07-30T11:58:12.777Z,35.80
2022-07-30T11:59:19.301Z,35.60
2022-07-30T12:00:23.974Z,35.60
2022-07-30T12:01:30.823Z,35.60
2022-07-30T12:02:34.668Z,35.80
2022-07-30T12:03:42.324Z,35.70
2022-07-30T12:04:44.954Z,35.70
2022-07-30T12:05:51.259Z,35.80
2022-07-30T12:06:56.951Z,36.20
2022-07-30T12:07:59.947Z,36.00
2022-07-30T12:09:03.834Z,35.90
2022-07-30T12:10:16.266Z,36.00
2022-07-30T12:11:20.938Z,36.30
2022-07-30T12:12:25.134Z,36.90
2022-07-30T12:13:45.177Z,37.40
2022-07-30T12:14:51.686Z,37.70
2022-07-30T12:15:56.294Z,37.50
2022-07-30T12:17:00.186Z,37.40
2022-07-30T12:18:25.200Z,37.20
2022-07-30T12:19:29.253Z,37.30
2022-07-30T12:20:55.368Z,37.50
2022-07-30T12:22:01.589Z,37.80
2022-07-30T12:23:10.002Z,38.00
2022-07-30T12:24:13.762Z,38.10
2022-07-30T12:25:16.752Z,38.00
2022-07-30T12:26:26.525Z,37.90
2022-07-30T12:27:30.605Z,37.20
2022-07-30T12:28:37.036Z,37.40
2022-07-30T12:29:41.458Z,37.60
2022-07-30T12:30:46.716Z,37.40
2022-07-30T12:31:53.679Z,37.40
2022-07-30T12:32:57.142Z,37.40
2022-07-30T12:34:03.701Z,37.50
2022-07-30T12:35:08.072Z,37.50
2022-07-30T12:36:24.884Z,37.40
2022-07-30T12:37:29.076Z,37.20
2022-07-30T12:38:49.208Z,37.20
2022-07-30T12:40:05.912Z,37.00
2022-07-30T12:41:11.503Z,37.20
2022-07-30T12:42:20.302Z,37.50
2022-07-30T12:43:48.387Z,37.30
2022-07-30T12:44:51.953Z,34.00
2022-07-30T12:46:00.561Z,35.50
2022-07-30T12:47:05.440Z,35.40
2022-07-30T12:48:12.213Z,35.80
2022-07-30T12:49:22.389Z,36.50
2022-07-30T12:50:29.750Z,37.00
2022-07-30T12:51:37.692Z,37.20
2022-07-30T12:52:50.597Z,37.10
2022-07-30T12:53:57.039Z,36.80
2022-07-30T12:55:05.722Z,37.00
2022-07-30T12:56:13.919Z,36.60
2022-07-30T12:57:17.114Z,36.40
2022-07-30T12:58:21.830Z,36.50
2022-07-30T12:59:26.230Z,36.00
2022-07-30T13:00:32.889Z,36.10
2022-07-30T13:01:43.178Z,35.60
2022-07-30T13:02:47.709Z,34.90
2022-07-30T13:03:52.465Z,35.40
2022-07-30T13:05:10.170Z,35.30
2022-07-30T13:06:20.881Z,35.60
2022-07-30T13:07:23.915Z,35.70
2022-07-30T13:08:52.189Z,35.90
2022-07-30T13:10:12.397Z,36.20
2022-07-30T13:11:17.126Z,36.10
2022-07-30T13:12:20.504Z,36.00
2022-07-30T13:13:25.072Z,36.10
2022-07-30T13:14:28.066Z,36.00
2022-07-30T13:15:32.440Z,36.10
2022-07-30T13:16:37.315Z,36.20
2022-07-30T13:17:41.497Z,36.30
2022-07-30T13:18:46.149Z,36.10
2022-07-30T13:19:49.848Z,36.00
2022-07-30T13:20:55.509Z,36.00
2022-07-30T13:21:59.950Z,35.90
2022-07-30T13:23:03.187Z,35.90
2022-07-30T13:24:09.776Z,35.70
2022-07-30T13:25:20.723Z,35.50
2022-07-30T13:26:24.389Z,35.50
2022-07-30T13:27:26.771Z,35.50
2022-07-30T13:28:31.845Z,35.70
2022-07-30T13:29:35.210Z,35.70
2022-07-30T13:30:37.626Z,35.50
2022-07-30T13:31:43.163Z,35.90
2022-07-30T13:32:45.936Z,36.70
2022-07-30T13:33:49.905Z,36.30
2022-07-30T13:34:52.285Z,36.30
2022-07-30T13:36:00.208Z,36.30
2022-07-30T13:37:02.990Z,36.20
2022-07-30T13:38:07.117Z,36.00
2022-07-30T13:39:11.981Z,35.90
2022-07-30T13:40:14.561Z,35.80
2022-07-30T13:41:18.637Z,35.80
2022-07-30T13:42:21.822Z,35.70
2022-07-30T13:43:25.352Z,36.00
2022-07-30T13:44:28.699Z,36.10
2022-07-30T13:45:31.312Z,36.20
2022-07-30T13:46:39.752Z,36.50
2022-07-30T13:47:43.465Z,36.30
2022-07-30T13:48:46.884Z,36.10
2022-07-30T13:49:51.535Z,36.40
2022-07-30T13:50:59.269Z,36.60
2022-07-30T13:52:01.710Z,36.80
2022-07-30T13:53:05.230Z,37.20
2022-07-30T13:54:07.660Z,37.50
2022-07-30T13:55:11.073Z,37.50
2022-07-30T13:56:13.594Z,37.50
2022-07-30T13:57:19.302Z,37.40
2022-07-30T13:58:25.072Z,37.50
2022-07-30T13:59:27.491Z,37.50
2022-07-30T14:00:33.777Z,37.30
2022-07-30T14:01:38.042Z,37.40
2022-07-30T14:02:43.947Z,37.40
2022-07-30T14:03:50.825Z,37.50
2022-07-30T14:04:56.493Z,37.50
2022-07-30T14:06:10.894Z,37.70
2022-07-30T14:07:17.235Z,37.70
2022-07-30T14:08:21.667Z,37.80
2022-07-30T14:09:24.154Z,37.90
2022-07-30T14:10:28.542Z,38.50
2022-07-30T14:11:31.899Z,37.70
2022-07-30T14:12:35.915Z,37.50
2022-07-30T14:13:39.421Z,37.10
2022-07-30T14:14:42.003Z,37.00
2022-07-30T14:15:45.446Z,36.80
2022-07-30T14:16:50.729Z,36.60
2022-07-30T14:17:58.664Z,36.50
2022-07-30T14:19:02.036Z,36.10
2022-07-30T14:20:08.196Z,35.90
2022-07-30T14:21:14.560Z,35.60
2022-07-30T14:22:17.766Z,35.80
2022-07-30T14:23:21.406Z,35.70
2022-07-30T14:24:24.310Z,35.20
2022-07-30T14:25:29.066Z,35.10
2022-07-30T14:26:34.383Z,35.20
2022-07-30T14:27:42.394Z,35.20
2022-07-30T14:28:45.825Z,34.70
2022-07-30T14:29:51.346Z,34.60
2022-07-30T14:30:55.142Z,34.70
2022-07-30T14:31:59.444Z,34.40
2022-07-30T14:33:04.771Z,34.20
2022-07-30T14:34:09.127Z,34.00
2022-07-30T14:35:13.855Z,33.90
2022-07-30T14:36:20.544Z,33.30
2022-07-30T14:37:23.965Z,33.50
2022-07-30T14:38:27.379Z,33.90
2022-07-30T14:39:30.071Z,33.80
2022-07-30T14:40:33.577Z,33.60
2022-07-30T14:41:37.238Z,34.40
2022-07-30T14:42:41.018Z,34.50
2022-07-30T14:43:43.465Z,34.50
2022-07-30T14:44:46.906Z,33.90
2022-07-30T14:45:53.326Z,33.20
2022-07-30T14:46:55.723Z,33.10
2022-07-30T14:47:59.071Z,33.90
2022-07-30T14:49:01.487Z,33.50
2022-07-30T14:50:05.941Z,33.10
2022-07-30T14:51:16.231Z,32.90